createdAt,value
2022-08-29T00:01:29.045Z,3.20
2022-08-29T00:03:57.923Z,2.90
2022-08-29T00:06:26.510Z,3.20
2022-08-29T00:08:53.952Z,3.05
2022-08-29T00:11:21.448Z,3.70
2022-08-29T00:13:49.198Z,3.15
2022-08-29T00:16:16.889Z,3.00
2022-08-29T00:18:44.297Z,3.35
2022-08-29T00:21:11.878Z,3.05
2022-08-29T00:23:39.834Z,2.97
2022-08-29T00:26:08.132Z,3.25
2022-08-29T00:28:35.720Z,3.20
2022-08-29T00:31:04.044Z,3.72
2022-08-29T00:33:31.427Z,3.88
2022-08-29T00:35:59.306Z,3.63
2022-08-29T00:38:28.017Z,3.35
2022-08-29T00:40:58.028Z,3.55
2022-08-29T00:43:29.602Z,3.60
2022-08-29T00:46:16.071Z,3.35
2022-08-29T00:48:47.993Z,2.95
2022-08-29T00:51:19.818Z,3.13
2022-08-29T00:53:52.982Z,3.63
2022-08-29T00:56:21.573Z,3.45
2022-08-29T00:58:54.206Z,3.33
2022-08-29T01:01:23.516Z,3.90
2022-08-29T01:03:52.645Z,4.25
2022-08-29T01:06:21.238Z,3.35
2022-08-29T01:08:49.502Z,4.07
2022-08-29T01:11:46.770Z,3.53
2022-08-29T01:14:15.466Z,3.60
2022-08-29T01:16:43.113Z,3.47
2022-08-29T01:19:44.693Z,4.45
2022-08-29T01:22:40.361Z,4.10
2022-08-29T01:25:16.604Z,3.80
2022-08-29T01:27:48.222Z,4.28
2022-08-29T01:30:15.757Z,4.20
2022-08-29T01:32:43.815Z,4.32
2022-08-29T01:35:12.206Z,3.92
2022-08-29T01:37:44.378Z,4.40
2022-08-29T01:42:41.082Z,3.60
2022-08-29T01:45:10.248Z,4.20
2022-08-29T01:47:39.432Z,3.85
2022-08-29T01:50:14.896Z,4.57
2022-08-29T01:52:43.141Z,4.30
2022-08-29T01:55:11.457Z,4.07
2022-08-29T01:57:40.328Z,3.92
2022-08-29T02:00:11.469Z,4.75
2022-08-29T02:02:41.107Z,3.95
2022-08-29T02:05:09.905Z,4.60
2022-08-29T02:07:37.801Z,3.65
2022-08-29T02:10:06.987Z,3.83
2022-08-29T02:12:35.350Z,3.28
2022-08-29T02:15:03.630Z,3.35
2022-08-29T02:17:31.399Z,4.60
2022-08-29T02:19:58.837Z,3.90
2022-08-29T02:22:26.456Z,3.88
2022-08-29T02:24:53.869Z,3.17
2022-08-29T02:27:21.354Z,3.40
2022-08-29T02:29:48.747Z,3.25
2022-08-29T02:32:18.033Z,4.28
2022-08-29T02:34:47.767Z,3.53
2022-08-29T02:37:16.677Z,3.65
2022-08-29T02:39:44.234Z,2.78
2022-08-29T02:42:11.945Z,3.50
2022-08-29T02:44:39.284Z,3.70
2022-08-29T02:47:09.549Z,3.40
2022-08-29T02:49:37.246Z,3.60
2022-08-29T02:52:07.343Z,3.75
2022-08-29T02:54:35.207Z,3.92
2022-08-29T02:57:02.681Z,3.63
2022-08-29T02:59:30.237Z,4.20
2022-08-29T03:01:58.165Z,3.90
2022-08-29T03:04:25.687Z,3.88
2022-08-29T03:06:53.945Z,4.68
2022-08-29T03:09:21.594Z,3.00
2022-08-29T03:11:49.176Z,3.83
2022-08-29T03:14:16.633Z,3.33
2022-08-29T03:16:44.486Z,3.47
2022-08-29T03:19:12.049Z,3.20
2022-08-29T03:21:39.716Z,4.05
2022-08-29T03:24:07.908Z,3.60
2022-08-29T03:26:35.640Z,3.90
2022-08-29T03:29:04.185Z,3.83
2022-08-29T03:31:31.910Z,3.70
2022-08-29T03:34:00.367Z,3.70
2022-08-29T03:36:27.712Z,3.58
2022-08-29T03:38:55.027Z,3.67
2022-08-29T03:41:28.703Z,3.70
2022-08-29T03:43:56.700Z,3.67
2022-08-29T03:46:24.437Z,3.50
2022-08-29T03:48:52.794Z,3.65
2022-08-29T03:51:21.822Z,3.92
2022-08-29T03:53:49.243Z,3.70
2022-08-29T03:56:18.954Z,4.00
2022-08-29T03:58:52.521Z,3.53
2022-08-29T04:01:27.012Z,4.40
2022-08-29T04:03:56.425Z,4.30
2022-08-29T04:06:25.183Z,4.43
2022-08-29T04:08:53.454Z,3.70
2022-08-29T04:11:24.456Z,4.05
2022-08-29T04:13:53.379Z,3.97
2022-08-29T04:16:30.701Z,3.90
2022-08-29T04:18:59.741Z,3.78
2022-08-29T04:21:27.362Z,4.85
2022-08-29T04:23:55.079Z,4.57
2022-08-29T04:26:38.430Z,4.18
2022-08-29T04:29:10.920Z,4.35
2022-08-29T04:31:40.042Z,4.03
2022-08-29T04:34:10.033Z,4.57
2022-08-29T04:36:39.879Z,4.28
2022-08-29T04:39:07.917Z,4.18
2022-08-29T04:41:37.111Z,4.32
2022-08-29T04:44:06.135Z,4.15
2022-08-29T04:46:34.182Z,4.70
2022-08-29T04:49:04.395Z,4.60
2022-08-29T04:51:34.947Z,4.53
2022-08-29T04:54:03.681Z,4.40
2022-08-29T04:56:31.168Z,4.95
2022-08-29T04:58:58.980Z,5.03
2022-08-29T05:01:27.504Z,4.95
2022-08-29T05:03:55.708Z,4.60
2022-08-29T05:06:24.219Z,4.55
2022-08-29T05:08:59.208Z,4.75
2022-08-29T05:11:29.447Z,4.72
2022-08-29T05:13:58.040Z,5.22
2022-08-29T05:16:25.796Z,4.57
2022-08-29T05:18:53.454Z,5.15
2022-08-29T05:21:38.492Z,5.15
2022-08-29T05:24:10.102Z,5.35
2022-08-29T05:26:44.259Z,4.82
2022-08-29T05:29:13.591Z,5.45
2022-08-29T05:31:44.490Z,5.20
2022-08-29T05:34:32.183Z,5.30
2022-08-29T05:37:02.198Z,5.35
2022-08-29T05:39:29.477Z,5.60
2022-08-29T05:41:58.034Z,5.50
2022-08-29T05:44:26.502Z,4.95
2022-08-29T05:46:53.755Z,5.18
2022-08-29T05:49:21.942Z,5.32
2022-08-29T05:51:52.316Z,4.88
2022-08-29T05:54:19.648Z,4.57
2022-08-29T05:56:47.371Z,4.97
2022-08-29T05:59:16.840Z,4.63
2022-08-29T06:01:46.555Z,4.70
2022-08-29T06:04:14.249Z,4.40
2022-08-29T06:06:42.111Z,4.72
2022-08-29T06:09:09.515Z,4.78
2022-08-29T06:11:37.257Z,3.70
2022-08-29T06:14:04.996Z,4.43
2022-08-29T06:16:32.735Z,4.13
2022-08-29T06:19:00.517Z,3.95
2022-08-29T06:21:28.095Z,4.47
2022-08-29T06:23:59.082Z,4.50
2022-08-29T06:26:27.515Z,4.03
2022-08-29T06:28:54.737Z,3.90
2022-08-29T06:31:27.520Z,3.70
2022-08-29T06:33:57.230Z,4.35
2022-08-29T06:36:25.741Z,3.97
2022-08-29T06:38:56.679Z,4.18
2022-08-29T06:41:25.381Z,4.25
2022-08-29T06:43:53.405Z,3.80
2022-08-29T06:46:30.077Z,4.10
2022-08-29T06:48:59.581Z,4.15
2022-08-29T06:51:28.056Z,4.22
2022-08-29T06:53:56.197Z,4.03
2022-08-29T06:56:23.324Z,3.78
2022-08-29T06:58:54.159Z,3.72
2022-08-29T07:01:22.988Z,3.63
2022-08-29T07:03:53.519Z,3.38
2022-08-29T07:06:21.594Z,3.35
2022-08-29T07:08:55.934Z,4.03
2022-08-29T07:11:25.655Z,3.65
2022-08-29T07:13:52.966Z,3.75
2022-08-29T07:16:20.690Z,3.13
2022-08-29T07:18:50.658Z,3.10
2022-08-29T07:21:21.156Z,3.67
2022-08-29T07:23:50.208Z,3.28
2022-08-29T07:26:33.594Z,3.33
2022-08-29T07:29:05.500Z,3.50
2022-08-29T07:31:33.841Z,3.25
2022-08-29T07:34:02.900Z,3.28
2022-08-29T07:36:34.805Z,3.42
2022-08-29T07:39:05.096Z,2.70
2022-08-29T07:41:32.547Z,3.33
2022-08-29T07:44:00.558Z,3.13
2022-08-29T07:46:28.305Z,3.20
2022-08-29T07:48:57.693Z,3.00
2022-08-29T07:51:25.835Z,2.97
2022-08-29T07:53:54.229Z,2.90
2022-08-29T07:56:25.014Z,3.03
2022-08-29T07:58:53.693Z,3.05
2022-08-29T08:01:22.132Z,3.45
2022-08-29T08:03:51.135Z,3.25
2022-08-29T08:06:23.599Z,3.40
2022-08-29T08:08:55.463Z,3.88
2022-08-29T08:11:25.317Z,3.17
2022-08-29T08:13:57.855Z,3.00
2022-08-29T08:16:27.729Z,3.45
2022-08-29T08:18:56.398Z,3.30
2022-08-29T08:21:25.136Z,3.00
2022-08-29T08:23:53.172Z,2.90
2022-08-29T08:26:21.169Z,2.50
2022-08-29T08:28:48.933Z,2.95
2022-08-29T08:31:16.545Z,3.40
2022-08-29T08:33:45.253Z,3.63
2022-08-29T08:36:21.353Z,3.05
2022-08-29T08:38:50.003Z,2.70
2022-08-29T08:41:26.850Z,3.20
2022-08-29T08:44:02.557Z,3.42
2022-08-29T08:46:47.637Z,3.20
2022-08-29T08:49:23.340Z,3.40
2022-08-29T08:51:58.596Z,3.17
2022-08-29T08:54:33.899Z,3.47
2022-08-29T08:57:10.060Z,2.78
2022-08-29T08:59:44.003Z,3.30
2022-08-29T09:02:27.123Z,3.00
2022-08-29T09:05:25.176Z,3.28
2022-08-29T09:07:57.250Z,3.58
2022-08-29T09:13:28.218Z,3.35
2022-08-29T09:15:59.147Z,2.88
2022-08-29T09:18:42.275Z,3.10
2022-08-29T09:21:40.098Z,3.83
2022-08-29T09:24:13.139Z,3.33
2022-08-29T09:26:41.446Z,3.17
2022-08-29T09:29:12.175Z,2.80
2022-08-29T09:31:40.111Z,3.08
2022-08-29T09:34:13.305Z,3.35
2022-08-29T09:36:50.939Z,2.97
2022-08-29T09:39:28.803Z,3.83
2022-08-29T09:41:59.243Z,3.47
2022-08-29T09:44:36.103Z,3.47
2022-08-29T09:47:15.076Z,2.60
2022-08-29T09:50:19.184Z,3.28
2022-08-29T09:52:52.616Z,2.80
2022-08-29T09:55:28.735Z,3.53
2022-08-29T09:58:02.807Z,2.88
2022-08-29T10:00:53.919Z,3.25
2022-08-29T10:03:25.599Z,2.47
2022-08-29T10:06:12.839Z,2.53
2022-08-29T10:08:42.345Z,2.80
2022-08-29T10:11:28.764Z,2.67
2022-08-29T10:14:13.349Z,2.92
2022-08-29T10:17:20.055Z,2.50
2022-08-29T10:19:48.220Z,13.70
2022-08-29T10:22:52.951Z,2.30
2022-08-29T10:25:23.040Z,3.13
2022-08-29T10:28:00.760Z,2.70
2022-08-29T10:30:32.898Z,2.15
2022-08-29T10:33:05.067Z,2.92
2022-08-29T10:35:44.265Z,2.70
2022-08-29T10:38:39.546Z,2.72
2022-08-29T10:41:19.842Z,2.80
2022-08-29T10:44:10.903Z,2.88
2022-08-29T10:46:55.674Z,2.95
2022-08-29T10:49:50.990Z,2.78
2022-08-29T10:52:30.897Z,2.90
2022-08-29T10:55:27.503Z,2.70
2022-08-29T10:58:07.604Z,2.33
2022-08-29T11:00:43.880Z,2.35
2022-08-29T11:03:20.395Z,2.80
2022-08-29T11:05:58.095Z,3.20
2022-08-29T11:08:36.409Z,3.35
2022-08-29T11:11:04.813Z,3.38
2022-08-29T11:14:05.566Z,3.88
2022-08-29T11:16:46.139Z,3.10
2022-08-29T11:19:49.649Z,3.65
2022-08-29T11:22:23.375Z,3.83
2022-08-29T11:25:03.019Z,3.30
2022-08-29T11:28:25.456Z,3.53
2022-08-29T11:31:15.073Z,3.63
2022-08-29T11:34:11.205Z,3.67
2022-08-29T11:37:06.511Z,2.97
2022-08-29T11:39:51.397Z,3.42
2022-08-29T11:45:15.549Z,3.17
2022-08-29T11:47:46.076Z,3.30
2022-08-29T11:50:16.535Z,3.40
2022-08-29T11:52:55.484Z,3.00
2022-08-29T11:55:33.714Z,2.92
2022-08-29T11:58:20.997Z,3.38
2022-08-29T12:00:57.010Z,3.20
2022-08-29T12:03:33.926Z,3.17
2022-08-29T12:06:15.618Z,3.50
2022-08-29T12:09:05.865Z,3.73
2022-08-29T12:11:59.647Z,3.55
2022-08-29T12:14:55.998Z,4.03
2022-08-29T12:17:23.409Z,2.55
2022-08-29T12:20:00.990Z,3.22
2022-08-29T12:22:50.287Z,2.58
2022-08-29T12:25:43.586Z,2.42
2022-08-29T12:28:31.292Z,1.85
2022-08-29T12:31:00.216Z,1.90
2022-08-29T12:33:40.741Z,1.95
2022-08-29T12:36:11.381Z,2.20
2022-08-29T12:38:55.903Z,2.20
2022-08-29T12:41:50.504Z,2.03
2022-08-29T12:44:24.913Z,1.83
2022-08-29T12:46:56.365Z,1.75
2022-08-29T12:49:27.390Z,1.42
2022-08-29T12:52:03.803Z,1.67
2022-08-29T12:54:41.617Z,1.60
2022-08-29T12:57:22.126Z,1.98
2022-08-29T12:59:51.921Z,1.70
2022-08-29T13:02:33.183Z,1.75
2022-08-29T13:05:01.536Z,1.67
2022-08-29T13:07:30.005Z,1.83
2022-08-29T13:10:00.984Z,1.70
2022-08-29T13:12:35.161Z,1.47
2022-08-29T13:15:07.946Z,1.58
2022-08-29T13:17:41.349Z,1.35
2022-08-29T13:20:46.245Z,1.85
2022-08-29T13:23:19.409Z,1.10
2022-08-29T13:25:51.780Z,1.30
2022-08-29T13:28:30.588Z,1.92
2022-08-29T13:31:05.523Z,1.08
2022-08-29T13:33:34.847Z,1.30
2022-08-29T13:36:38.600Z,1.38
2022-08-29T13:39:18.076Z,1.20
2022-08-29T13:42:11.928Z,1.08
2022-08-29T13:44:45.430Z,1.35
2022-08-29T13:47:20.061Z,1.52
2022-08-29T13:49:48.566Z,1.13
2022-08-29T13:52:17.657Z,1.08
2022-08-29T13:54:45.487Z,1.10
2022-08-29T13:57:20.246Z,1.02
2022-08-29T13:59:48.433Z,1.23
2022-08-29T14:02:16.883Z,0.90
2022-08-29T14:04:48.982Z,1.20
2022-08-29T14:07:29.573Z,1.10
2022-08-29T14:09:57.353Z,0.90
2022-08-29T14:12:33.274Z,1.05
2022-08-29T14:15:09.344Z,0.98
2022-08-29T14:17:39.834Z,0.88
2022-08-29T14:20:10.164Z,0.95
2022-08-29T14:22:37.913Z,1.08
2022-08-29T14:25:07.223Z,1.52
2022-08-29T14:27:34.839Z,0.68
2022-08-29T14:30:02.217Z,1.10
2022-08-29T14:32:29.533Z,0.80
2022-08-29T14:34:57.019Z,0.88
2022-08-29T14:37:24.668Z,1.02
2022-08-29T14:39:52.456Z,0.90
2022-08-29T14:42:20.307Z,1.30
2022-08-29T14:44:47.905Z,0.70
2022-08-29T14:47:15.225Z,1.17
2022-08-29T14:49:42.780Z,5.20
2022-08-29T14:52:12.458Z,1.85
2022-08-29T14:54:39.721Z,0.75
2022-08-29T14:57:07.587Z,0.60
2022-08-29T14:59:36.388Z,0.60
2022-08-29T15:02:05.479Z,0.68
2022-08-29T15:04:36.549Z,0.80
2022-08-29T15:07:12.436Z,0.70
2022-08-29T15:09:42.074Z,0.63
2022-08-29T15:12:10.432Z,1.00
2022-08-29T15:14:37.798Z,0.60
2022-08-29T15:17:06.164Z,0.88
2022-08-29T15:22:22.534Z,0.80
2022-08-29T15:24:51.128Z,0.80
2022-08-29T15:27:26.316Z,0.90
2022-08-29T15:29:55.145Z,1.10
2022-08-29T15:32:22.413Z,0.90
2022-08-29T15:34:50.419Z,1.40
2022-08-29T15:37:17.848Z,1.20
2022-08-29T15:39:45.122Z,1.08
2022-08-29T15:42:13.651Z,0.80
2022-08-29T15:44:45.251Z,1.30
2022-08-29T15:47:12.897Z,1.40
2022-08-29T15:49:42.054Z,0.98
2022-08-29T15:52:10.493Z,0.95
2022-08-29T15:54:39.545Z,1.40
2022-08-29T15:57:07.428Z,1.20
2022-08-29T15:59:57.148Z,1.00
2022-08-29T16:02:22.389Z,1.42
2022-08-29T16:04:54.821Z,1.40
2022-08-29T16:07:29.341Z,2.03
2022-08-29T16:10:02.055Z,1.70
2022-08-29T16:12:31.654Z,2.13
2022-08-29T16:15:00.644Z,1.77
2022-08-29T16:17:31.335Z,1.70
2022-08-29T16:20:00.640Z,1.63
2022-08-29T16:22:28.963Z,1.50
2022-08-29T16:24:56.585Z,1.13
2022-08-29T16:27:24.817Z,1.17
2022-08-29T16:29:53.866Z,1.42
2022-08-29T16:32:21.628Z,0.95
2022-08-29T16:34:48.932Z,1.20
2022-08-29T16:37:16.385Z,1.25
2022-08-29T16:39:43.948Z,1.02
2022-08-29T16:42:14.433Z,1.20
2022-08-29T16:44:41.901Z,1.70
2022-08-29T16:47:09.633Z,1.50
2022-08-29T16:49:39.726Z,1.60
2022-08-29T16:52:07.523Z,1.40
2022-08-29T16:54:34.951Z,2.30
2022-08-29T16:57:04.223Z,1.63
2022-08-29T16:59:35.324Z,1.42
2022-08-29T17:02:05.708Z,1.90
2022-08-29T17:04:34.073Z,2.17
2022-08-29T17:07:01.519Z,1.70
2022-08-29T17:09:29.020Z,2.00
2022-08-29T17:11:57.225Z,2.05
2022-08-29T17:14:26.795Z,1.95
2022-08-29T17:16:56.020Z,2.10
2022-08-29T17:19:24.425Z,2.65
2022-08-29T17:21:52.429Z,2.17
2022-08-29T17:24:20.869Z,1.98
2022-08-29T17:26:48.998Z,2.30
2022-08-29T17:29:16.680Z,1.92
2022-08-29T17:31:44.287Z,2.20
2022-08-29T17:34:13.027Z,1.88
2022-08-29T17:36:40.882Z,2.05
2022-08-29T17:39:08.850Z,1.85
2022-08-29T17:41:37.721Z,2.05
2022-08-29T17:44:07.483Z,2.03
2022-08-29T17:46:35.531Z,2.15
2022-08-29T17:49:07.979Z,1.70
2022-08-29T17:51:37.084Z,1.77
2022-08-29T17:54:08.636Z,1.88
2022-08-29T17:56:54.546Z,2.20
2022-08-29T17:59:26.020Z,2.10
2022-08-29T18:01:54.630Z,2.30
2022-08-29T18:04:23.072Z,1.85
2022-08-29T18:06:52.179Z,2.25
2022-08-29T18:09:21.593Z,2.38
2022-08-29T18:11:50.775Z,2.20
2022-08-29T18:14:20.903Z,2.05
2022-08-29T18:16:48.417Z,3.25
2022-08-29T18:19:15.933Z,1.63
2022-08-29T18:21:44.763Z,2.30
2022-08-29T18:24:14.479Z,2.13
2022-08-29T18:26:47.120Z,2.20
2022-08-29T18:29:15.638Z,2.65
2022-08-29T18:31:43.324Z,1.88
2022-08-29T18:34:11.582Z,2.05
2022-08-29T18:36:41.571Z,2.58
2022-08-29T18:39:10.431Z,2.08
2022-08-29T18:41:37.916Z,1.75
2022-08-29T18:44:06.151Z,2.03
2022-08-29T18:46:34.272Z,1.90
2022-08-29T18:49:02.713Z,2.20
2022-08-29T18:51:32.451Z,1.98
2022-08-29T18:53:59.916Z,2.30
2022-08-29T18:56:27.294Z,1.73
2022-08-29T18:58:58.789Z,1.70
2022-08-29T19:01:28.962Z,1.98
2022-08-29T19:03:58.797Z,2.35
2022-08-29T19:06:27.655Z,1.98
2022-08-29T19:08:56.918Z,1.95
2022-08-29T19:11:25.674Z,2.10
2022-08-29T19:15:00.894Z,2.47
2022-08-29T19:16:41.046Z,2.03
2022-08-29T19:19:13.352Z,2.58
2022-08-29T19:21:42.563Z,1.80
2022-08-29T19:24:09.941Z,2.20
2022-08-29T19:26:39.272Z,2.40
2022-08-29T19:29:14.354Z,2.13
2022-08-29T19:31:42.634Z,2.30
2022-08-29T19:34:10.175Z,2.40
2022-08-29T19:36:39.451Z,2.33
2022-08-29T19:39:06.641Z,2.88
2022-08-29T19:41:35.520Z,2.25
2022-08-29T19:44:02.929Z,2.67
2022-08-29T19:46:31.464Z,2.63
2022-08-29T19:48:59.598Z,2.65
2022-08-29T19:51:32.968Z,2.35
2022-08-29T19:54:03.528Z,2.47
2022-08-29T19:56:33.644Z,2.67
2022-08-29T19:59:01.570Z,2.75
2022-08-29T20:01:29.668Z,2.70
2022-08-29T20:03:57.042Z,3.03
2022-08-29T20:06:27.782Z,3.15
2022-08-29T20:08:55.463Z,2.90
2022-08-29T20:11:26.059Z,3.15
2022-08-29T20:13:58.584Z,3.10
2022-08-29T20:16:29.763Z,2.67
2022-08-29T20:18:57.703Z,3.07
2022-08-29T20:21:25.252Z,2.35
2022-08-29T20:23:57.707Z,2.80
2022-08-29T20:26:25.913Z,2.88
2022-08-29T20:28:54.472Z,3.10
2022-08-29T20:31:22.515Z,3.15
2022-08-29T20:33:50.723Z,2.83
2022-08-29T20:36:39.070Z,3.10
2022-08-29T20:39:08.503Z,2.75
2022-08-29T20:41:35.916Z,2.17
2022-08-29T20:44:10.476Z,2.70
2022-08-29T20:46:40.741Z,2.70
2022-08-29T20:49:09.592Z,2.30
2022-08-29T20:51:38.497Z,2.80
2022-08-29T20:54:07.179Z,2.42
2022-08-29T20:56:34.724Z,2.40
2022-08-29T20:59:04.501Z,2.33
2022-08-29T21:01:32.274Z,2.35
2022-08-29T21:04:20.932Z,2.45
2022-08-29T21:06:49.830Z,2.28
2022-08-29T21:09:17.130Z,2.63
2022-08-29T21:11:45.102Z,2.33
2022-08-29T21:14:12.696Z,2.70
2022-08-29T21:16:40.351Z,2.42
2022-08-29T21:19:10.014Z,2.45
2022-08-29T21:21:40.006Z,2.35
2022-08-29T21:24:10.128Z,2.58
2022-08-29T21:26:38.935Z,2.97
2022-08-29T21:29:07.891Z,2.75
2022-08-29T21:31:35.794Z,2.67
2022-08-29T21:34:07.003Z,2.08
2022-08-29T21:36:36.611Z,2.60
2022-08-29T21:39:06.985Z,2.08
2022-08-29T21:41:37.500Z,2.80
2022-08-29T21:44:05.167Z,3.13
2022-08-29T21:46:35.005Z,2.50
2022-08-29T21:49:06.315Z,2.90
2022-08-29T21:51:35.493Z,2.80
2022-08-29T21:54:07.490Z,2.47
2022-08-29T21:56:37.782Z,2.90
2022-08-29T21:59:05.872Z,2.78
2022-08-29T22:01:39.318Z,2.97
2022-08-29T22:04:19.248Z,3.20
2022-08-29T22:06:56.813Z,3.20
2022-08-29T22:09:24.454Z,3.17
2022-08-29T22:11:52.678Z,3.00
2022-08-29T22:14:20.067Z,2.83
2022-08-29T22:16:47.658Z,2.95
2022-08-29T22:19:17.696Z,2.72
2022-08-29T22:21:48.913Z,2.78
2022-08-29T22:24:17.708Z,3.63
2022-08-29T22:26:46.323Z,2.80
2022-08-29T22:29:16.252Z,3.00
2022-08-29T22:31:44.869Z,3.63
2022-08-29T22:34:14.460Z,3.20
2022-08-29T22:36:42.028Z,2.90
2022-08-29T22:39:09.982Z,2.75
2022-08-29T22:41:38.208Z,3.17
2022-08-29T22:44:52.682Z,3.08
2022-08-29T22:46:55.188Z,3.35
2022-08-29T22:49:23.424Z,3.15
2022-08-29T22:51:54.930Z,3.78
2022-08-29T22:54:37.388Z,3.90
2022-08-29T22:57:11.081Z,2.92
2022-08-29T22:59:39.023Z,3.63
2022-08-29T23:02:07.963Z,3.50
2022-08-29T23:04:36.813Z,3.30
2022-08-29T23:07:06.000Z,3.78
2022-08-29T23:09:35.134Z,3.45
2022-08-29T23:12:05.948Z,3.55
2022-08-29T23:14:40.196Z,3.70
2022-08-29T23:17:09.000Z,3.35
2022-08-29T23:19:40.943Z,3.38
2022-08-29T23:22:10.371Z,3.83
2022-08-29T23:24:39.533Z,3.30
2022-08-29T23:27:09.102Z,4.07
2022-08-29T23:29:42.068Z,3.55
2022-08-29T23:32:09.971Z,3.92
2022-08-29T23:34:37.900Z,3.47
2022-08-29T23:37:05.394Z,3.65
2022-08-29T23:39:32.718Z,3.20
2022-08-29T23:42:00.058Z,3.40
2022-08-29T23:44:27.539Z,3.42
2022-08-29T23:46:58.482Z,3.78
2022-08-29T23:49:25.924Z,3.53
2022-08-29T23:51:53.338Z,3.60
2022-08-29T23:54:20.836Z,3.42
2022-08-29T23:56:48.546Z,3.88
2022-08-29T23:59:35.836Z,3.72
